createdAt,value
2018-07-27T19:45:01.288Z,100581.86
2018-07-27T19:47:30.147Z,100574.58
2018-07-27T19:50:38.063Z,100569.45
2018-07-27T19:53:07.088Z,100574.94
2018-07-27T19:55:37.294Z,100578.26
2018-07-27T19:58:07.833Z,100580.30
2018-07-27T20:00:36.680Z,100576.23
2018-07-27T20:03:05.768Z,100573.46
2018-07-27T20:05:34.675Z,100578.17
2018-07-27T20:08:03.544Z,100570.35
2018-07-27T20:10:32.386Z,100566.08
2018-07-27T20:13:02.628Z,100565.14
2018-07-27T20:15:31.567Z,100563.50
2018-07-27T20:18:00.394Z,100561.88
2018-07-27T20:20:30.496Z,100559.05
2018-07-27T20:23:00.675Z,100552.10
2018-07-27T20:25:29.507Z,100544.37
2018-07-27T20:27:58.528Z,100536.45
2018-07-27T20:30:27.559Z,100536.45
2018-07-27T20:32:56.469Z,100529.36
2018-07-27T20:35:25.300Z,100528.86
2018-07-27T20:37:54.731Z,100529.53
2018-07-27T20:40:23.560Z,100534.19
2018-07-27T20:42:52.442Z,100531.55
2018-07-27T20:45:21.548Z,100530.38
2018-07-27T20:47:50.375Z,100532.19
2018-07-27T20:50:19.312Z,100533.51
2018-07-27T20:52:48.180Z,100530.37
2018-07-27T20:55:18.280Z,100523.73
2018-07-27T20:57:47.196Z,100531.14
2018-07-27T21:00:16.016Z,100533.30
2018-07-27T21:02:45.553Z,100532.81
2018-07-27T21:05:15.276Z,100528.98
2018-07-27T21:07:44.303Z,100523.84
2018-07-27T21:10:13.908Z,100517.59
2018-07-27T21:12:44.803Z,100519.07
2018-07-27T21:15:13.610Z,100512.31
2018-07-27T21:17:42.422Z,100513.97
2018-07-27T21:20:11.296Z,100507.53
2018-07-27T21:22:40.111Z,100512.64
2018-07-27T21:25:09.060Z,100506.69
2018-07-27T21:27:37.883Z,100508.16
2018-07-27T21:30:08.295Z,100505.17
2018-07-27T21:32:37.081Z,100499.95
2018-07-27T21:35:05.989Z,100495.35
2018-07-27T21:37:36.212Z,100498.84
2018-07-27T21:40:05.136Z,100492.73
2018-07-27T21:42:34.008Z,100499.86
2018-07-27T21:45:02.857Z,100497.36
2018-07-27T21:47:31.680Z,100494.87
2018-07-27T21:50:00.471Z,100487.15
2018-07-27T21:52:29.326Z,100486.48
2018-07-27T21:54:58.222Z,100487.98
2018-07-27T21:57:27.026Z,100474.77
2018-07-27T21:59:55.826Z,100478.56
2018-07-27T22:02:24.699Z,100469.80
2018-07-27T22:04:53.642Z,100476.73
2018-07-27T22:07:22.598Z,100477.71
2018-07-27T22:09:52.841Z,100473.07
2018-07-27T22:12:21.623Z,100474.13
2018-07-27T22:14:50.435Z,100470.03
2018-07-27T22:17:19.322Z,100472.83
2018-07-27T22:19:48.288Z,100467.03
2018-07-27T22:22:17.101Z,100464.88
2018-07-27T22:24:45.933Z,100462.41
2018-07-27T22:27:14.759Z,100462.25
2018-07-27T22:29:43.638Z,100452.52
2018-07-27T22:32:12.466Z,100455.66
2018-07-27T22:34:41.295Z,100463.91
2018-07-27T22:37:10.068Z,100462.58
2018-07-27T22:39:38.860Z,100462.89
2018-07-27T22:42:07.719Z,100458.59
2018-07-27T22:44:36.480Z,100457.91
2018-07-27T22:47:05.308Z,100454.97
2018-07-27T22:49:34.119Z,100451.81
2018-07-27T22:52:02.921Z,100453.64
2018-07-27T22:54:32.090Z,100462.20
2018-07-27T22:57:00.859Z,100463.37
2018-07-27T22:59:29.658Z,100452.65
2018-07-27T23:01:58.450Z,100460.08
2018-07-27T23:04:27.465Z,100460.42
2018-07-27T23:06:56.312Z,100459.59
2018-07-27T23:09:25.114Z,100455.15
2018-07-27T23:11:54.164Z,100451.83
2018-07-27T23:14:22.986Z,100452.00
2018-07-27T23:16:51.981Z,100449.52
2018-07-27T23:19:20.764Z,100448.88
2018-07-27T23:21:49.655Z,100446.53
2018-07-27T23:24:18.708Z,100445.05
2018-07-27T23:26:47.820Z,100448.17
2018-07-27T23:29:16.635Z,100442.06
2018-07-27T23:31:45.479Z,100437.48
2018-07-27T23:34:14.234Z,100437.64
2018-07-27T23:36:43.003Z,100433.50
2018-07-27T23:39:14.610Z,100429.09
2018-07-27T23:41:44.180Z,100431.55
2018-07-27T23:44:12.963Z,100428.62
2018-07-27T23:46:41.790Z,100436.81
2018-07-27T23:49:10.630Z,100433.33
2018-07-27T23:51:39.420Z,100431.23
2018-07-27T23:54:08.319Z,100441.25
2018-07-27T23:56:37.151Z,100445.38
2018-07-27T23:59:05.951Z,100443.87
